Time;durP1;ratioP1;P1;durP2;ratioP2;P2;SDS_P1;SDS_P2;PMS_P1;PMS_P2;Temp;Humidity;BMP_temperature;BMP_pressure;BME280_temperature;BME280_humidity;BME280_pressure;Samples;Min_cycle;Max_cycle;Signal;HPM_P1;HPM_P2
2022/06/17 05:39:24;;;;;;;19.90;12.60;;;16.10;94.00;;;;;;6246010;22;20007;-81
2022/06/17 05:49:47;;;;;;;17.02;12.55;;;16.20;93.80;;;;;;6183367;23;20021;-73
2022/06/17 05:52:13;;;;;;;15.43;12.30;;;16.40;93.50;;;;;;6157549;23;20096;-75
2022/06/17 05:54:38;;;;;;;18.63;13.30;;;16.50;93.70;;;;;;6189583;22;20354;-73
2022/06/17 05:57:04;;;;;;;21.45;13.05;;;16.70;93.40;;;;;;6249743;22;20012;-74
2022/06/17 06:07:12;;;;;;;19.42;12.18;;;16.90;93.10;;;;;;6130599;23;20104;-80
2022/06/17 06:09:38;;;;;;;22.98;12.40;;;17.10;92.80;;;;;;6156848;22;20015;-74
2022/06/17 06:12:04;;;;;;;15.45;11.38;;;17.10;92.60;;;;;;6250386;22;20007;-70
2022/06/17 06:14:30;;;;;;;16.23;11.57;;;17.20;92.50;;;;;;6248789;22;20038;-70
2022/06/17 06:16:56;;;;;;;16.45;12.68;;;17.20;92.70;;;;;;6225262;22;20084;-73
2022/06/17 06:19:27;;;;;;;20.73;11.48;;;17.30;92.60;;;;;;6226177;22;20007;-77
2022/06/17 06:21:58;;;;;;;16.20;12.05;;;17.30;92.60;;;;;;6226747;22;20008;-77
2022/06/17 11:57:58;;;;;;;8.32;4.13;;;28.70;54.70;;;;;;6246398;22;20387;-80
2022/06/17 12:01:04;;;;;;;9.02;3.90;;;28.70;53.70;;;;;;6196640;23;20019;-77
2022/06/17 12:03:47;;;;;;;8.10;3.38;;;28.70;53.90;;;;;;6246089;23;20012;-77
2022/06/17 12:09:36;;;;;;;10.55;3.83;;;28.40;54.10;;;;;;6192706;23;20062;-73
2022/06/17 12:12:05;;;;;;;11.98;3.40;;;28.30;54.10;;;;;;6194522;23;20508;-72
2022/06/17 12:14:42;;;;;;;13.07;3.90;;;28.20;54.30;;;;;;6219782;23;20027;-73
2022/06/17 12:17:45;;;;;;;8.82;4.03;;;28.30;53.40;;;;;;6195998;23;20017;-72
2022/06/17 12:20:46;;;;;;;8.88;3.50;;;28.20;51.90;;;;;;6241519;23;20020;-70
2022/06/17 12:27:42;;;;;;;;;;;;;;;;;;;;;
2022/06/17 12:31:38;;;;;;;;;;;;;;;;;;;;;
2022/06/17 12:38:22;;;;;;;10.57;3.35;;;28.00;50.10;;;;;;6017235;23;20701;-85
2022/06/17 12:40:56;;;;;;;11.07;3.88;;;28.00;50.90;;;;;;6014123;23;20070;-77
2022/06/17 12:58:54;;;;;;;13.17;3.67;;;27.80;51.20;;;;;;6093177;23;20026;-80
2022/06/17 13:02:23;;;;;;;;;;;;;;;;;;;;;
2022/06/17 13:05:13;;;;;;;9.40;3.10;;;27.90;52.10;;;;;;6099481;23;20385;-82
2022/06/17 13:08:17;;;;;;;20.20;3.20;;;27.90;52.80;;;;;;6076292;23;20512;-81
2022/06/17 16:15:43;;;;;;;6.53;1.88;;;31.70;47.20;;;;;;6239103;22;20023;-78
2022/06/17 16:18:24;;;;;;;8.07;3.10;;;32.10;46.20;;;;;;6224259;22;20046;-72
2022/06/17 16:20:50;;;;;;;9.55;2.30;;;31.90;47.10;;;;;;6219631;23;20016;-72
2022/06/17 16:23:34;;;;;;;6.15;1.92;;;31.90;45.60;;;;;;6246690;23;20087;-71
2022/06/17 16:26:15;;;;;;;6.60;1.80;;;32.00;46.50;;;;;;6195303;23;20383;-71
2022/06/17 16:28:43;;;;;;;6.75;1.92;;;32.20;46.00;;;;;;6220144;23;20048;-73
2022/06/17 16:35:16;;;;;;;8.68;2.13;;;32.00;45.50;;;;;;6153150;23;20349;-76
2022/06/17 16:52:03;;;;;;;6.10;1.80;;;31.00;44.80;;;;;;6154701;23;20108;-79
2022/06/17 16:54:38;;;;;;;8.83;2.00;;;30.50;46.70;;;;;;6111255;23;20025;-77
2022/06/17 16:57:51;;;;;;;7.95;1.95;;;30.30;47.10;;;;;;6105919;23;20065;-77
2022/06/17 17:00:34;;;;;;;6.68;1.83;;;30.20;47.60;;;;;;6202070;23;20672;-76
2022/06/17 17:03:45;;;;;;;4.53;1.80;;;29.90;47.90;;;;;;6199365;23;20047;-76
2022/06/17 17:06:19;;;;;;;6.03;2.47;;;29.70;48.90;;;;;;6201933;23;20012;-77
2022/06/17 17:08:56;;;;;;;4.57;2.20;;;29.10;49.20;;;;;;6174245;23;20012;-77
2022/06/17 17:11:56;;;;;;;10.05;2.60;;;28.80;50.60;;;;;;6195241;23;20005;-76
2022/06/17 17:22:06;;;;;;;10.80;1.85;;;27.90;54.10;;;;;;6168945;23;20016;-76
2022/06/17 18:10:41;;;;;;;;;;;;;;;;;;;;;
2022/06/17 18:20:58;;;;;;;5.13;2.00;;;25.30;59.70;;;;;;5900242;24;20104;-74
2022/06/17 18:23:24;;;;;;;4.85;2.20;;;25.20;60.20;;;;;;5921452;23;20074;-73
2022/06/17 18:25:50;;;;;;;8.75;2.40;;;25.20;60.00;;;;;;6067514;23;20433;-74
2022/06/17 18:28:17;;;;;;;5.60;2.25;;;25.20;60.80;;;;;;6139779;23;20375;-73
2022/06/17 18:30:46;;;;;;;5.95;1.98;;;25.10;60.10;;;;;;6164770;23;20016;-72
2022/06/17 18:33:18;;;;;;;7.03;2.08;;;25.00;60.70;;;;;;6191213;23;20091;-76
2022/06/17 18:35:52;;;;;;;10.27;2.45;;;25.10;60.90;;;;;;6166481;23;20047;-76
2022/06/17 18:38:19;;;;;;;9.52;2.55;;;25.10;61.00;;;;;;6215848;23;20013;-76
2022/06/17 18:40:45;;;;;;;10.25;2.33;;;25.10;60.70;;;;;;6165344;23;20020;-75
2022/06/17 18:43:18;;;;;;;9.80;4.15;;;25.00;61.40;;;;;;6190858;23;20013;-78
2022/06/17 18:45:44;;;;;;;13.25;2.70;;;25.00;61.80;;;;;;6164948;23;20013;-77
2022/06/17 18:48:19;;;;;;;9.43;2.58;;;25.00;62.00;;;;;;6165460;23;20331;-79
2022/06/17 18:50:47;;;;;;;9.30;2.97;;;25.00;63.10;;;;;;6166283;23;20015;-79
2022/06/17 18:53:24;;;;;;;11.77;3.53;;;24.90;62.80;;;;;;6167396;23;20009;-72
2022/06/17 18:56:04;;;;;;;5.80;2.80;;;24.70;64.00;;;;;;6190522;23;20063;-77
2022/06/17 18:58:36;;;;;;;6.70;3.28;;;24.70;63.80;;;;;;6161631;23;20059;-78
2022/06/17 19:01:26;;;;;;;8.75;3.15;;;24.60;64.20;;;;;;6162123;23;20498;-78
2022/06/17 19:04:15;;;;;;;6.35;2.75;;;24.50;65.80;;;;;;6190630;23;20092;-77
2022/06/17 19:06:47;;;;;;;8.90;3.00;;;24.40;65.30;;;;;;6164002;23;20012;-78
2022/06/17 19:18:19;;;;;;;9.00;3.92;;;24.20;67.80;;;;;;6199825;23;20016;-78
2022/06/17 19:20:49;;;;;;;7.68;3.20;;;24.10;68.40;;;;;;6195777;23;20008;-77
2022/06/17 19:23:20;;;;;;;5.43;3.33;;;24.00;68.70;;;;;;6195916;23;20047;-77
2022/06/17 19:25:54;;;;;;;6.80;3.20;;;23.90;69.50;;;;;;6170184;23;20034;-78
2022/06/17 19:28:23;;;;;;;4.85;3.08;;;23.80;70.30;;;;;;6195404;23;20307;-79
2022/06/17 19:30:58;;;;;;;7.03;3.30;;;23.80;70.40;;;;;;6194527;23;20138;-77
2022/06/17 19:33:38;;;;;;;9.65;3.38;;;23.60;70.90;;;;;;6196340;23;20318;-78
2022/06/17 19:36:05;;;;;;;6.32;3.50;;;23.50;71.70;;;;;;6196419;23;20008;-77
2022/06/17 19:38:35;;;;;;;8.90;3.17;;;23.40;71.90;;;;;;6172833;23;20492;-77
2022/06/17 19:43:53;;;;;;;7.55;3.85;;;23.30;72.70;;;;;;6222599;23;20058;-78
2022/06/17 19:46:19;;;;;;;8.48;3.80;;;23.20;72.90;;;;;;6196781;23;20087;-78
2022/06/17 19:48:48;;;;;;;10.60;3.90;;;23.10;73.00;;;;;;6197681;22;20012;-77
2022/06/17 19:51:16;;;;;;;6.35;3.83;;;23.00;73.30;;;;;;6221277;23;20019;-80
2022/06/17 19:53:43;;;;;;;7.75;3.63;;;22.90;73.80;;;;;;6172668;23;20008;-79
2022/06/17 19:56:32;;;;;;;4.88;3.90;;;22.90;75.30;;;;;;6172095;23;20008;-77
2022/06/17 19:59:06;;;;;;;6.03;3.80;;;22.70;76.90;;;;;;6197587;23;20004;-77
2022/06/17 20:01:44;;;;;;;6.60;3.63;;;22.60;75.80;;;;;;6247290;23;20024;-77
2022/06/17 20:04:23;;;;;;;13.85;4.35;;;22.50;75.70;;;;;;6197421;23;20012;-77
2022/06/17 20:06:49;;;;;;;9.63;3.63;;;22.40;76.80;;;;;;6197087;23;20012;-77
2022/06/17 20:09:17;;;;;;;7.35;3.72;;;22.40;76.50;;;;;;6196909;23;20430;-77
2022/06/17 20:11:50;;;;;;;12.98;3.53;;;22.30;77.20;;;;;;6195919;23;20087;-78
2022/06/17 20:14:29;;;;;;;16.27;4.25;;;22.30;77.00;;;;;;6195853;23;20016;-77
2022/06/17 20:16:56;;;;;;;10.35;4.07;;;22.20;76.70;;;;;;6195919;23;20004;-77
2022/06/17 20:19:26;;;;;;;9.88;3.65;;;22.10;77.00;;;;;;6219546;23;20378;-80
2022/06/17 20:22:02;;;;;;;8.07;4.50;;;22.00;77.50;;;;;;6170179;23;20015;-77
2022/06/17 20:24:30;;;;;;;;;;;21.90;79.00;;;;;;6172398;23;20012;-78
2022/06/17 20:27:02;;;;;;;7.90;3.85;;;21.80;78.70;;;;;;6246977;23;20436;-76
2022/06/17 20:29:33;;;;;;;7.40;3.90;;;21.70;78.10;;;;;;6196377;23;20091;-77
2022/06/17 20:32:10;;;;;;;6.15;4.28;;;21.70;78.80;;;;;;6197159;23;20040;-77
2022/06/17 20:34:39;;;;;;;7.35;3.70;;;21.60;79.20;;;;;;6172178;23;20292;-78
2022/06/17 20:37:16;;;;;;;7.70;4.10;;;21.60;79.40;;;;;;6222277;23;20091;-78
2022/06/17 20:39:45;;;;;;;9.63;3.92;;;21.60;79.00;;;;;;6197055;23;20008;-78
2022/06/17 20:42:45;;;;;;;6.88;4.32;;;21.50;79.90;;;;;;6197912;23;20039;-78
2022/06/17 20:51:38;;;;;;;6.82;4.85;;;21.30;80.30;;;;;;6200109;23;20031;-66
2022/06/17 20:54:04;;;;;;;10.18;4.97;;;21.20;80.50;;;;;;6227010;23;20066;-66
2022/06/17 20:56:33;;;;;;;9.60;5.22;;;21.10;81.30;;;;;;6220926;23;20008;-67
2022/06/17 20:58:58;;;;;;;12.05;5.38;;;21.00;81.30;;;;;;6219940;22;20039;-66
2022/06/17 21:01:43;;;;;;;8.32;5.38;;;20.90;81.50;;;;;;6266562;22;20028;-70
2022/06/17 21:04:23;;;;;;;9.13;5.60;;;20.90;82.50;;;;;;6273875;22;20004;-69
2022/06/17 21:07:35;;;;;;;10.68;5.53;;;20.80;82.90;;;;;;6234444;23;20027;-69
2022/06/17 21:10:39;;;;;;;;;;;;;;;;;;;;;
2022/06/17 21:37:09;;;;;;;;;;;;;;;;;;;;;
2022/06/17 21:39:54;;;;;;;7.55;6.05;;;20.10;86.20;;;;;;6105636;23;20038;-68
2022/06/17 21:42:22;;;;;;;11.57;6.85;;;20.10;86.10;;;;;;6244022;23;20422;-78
2022/06/17 21:44:48;;;;;;;10.65;7.15;;;20.10;86.00;;;;;;6194334;23;20013;-76
2022/06/17 21:47:14;;;;;;;10.38;6.50;;;20.10;86.50;;;;;;6194208;23;20077;-78
2022/06/17 21:49:41;;;;;;;14.52;7.22;;;20.00;86.50;;;;;;6194182;23;20082;-77
2022/06/17 21:52:20;;;;;;;11.20;6.60;;;20.00;86.80;;;;;;6193442;23;20108;-78
2022/06/17 21:54:46;;;;;;;9.80;7.85;;;20.00;86.70;;;;;;6219143;23;20011;-78
2022/06/17 21:57:14;;;;;;;15.10;7.78;;;19.90;86.20;;;;;;6245715;23;20005;-77
2022/06/17 21:59:45;;;;;;;13.60;7.57;;;19.90;86.40;;;;;;6193912;23;20018;-76
2022/06/17 22:02:17;;;;;;;13.30;8.07;;;19.90;86.30;;;;;;6193457;23;20016;-76
2022/06/17 22:04:44;;;;;;;12.70;7.78;;;19.80;87.10;;;;;;6218811;23;20008;-77
2022/06/17 22:07:13;;;;;;;11.52;7.43;;;19.80;86.40;;;;;;6194291;23;20023;-77
2022/06/17 22:09:42;;;;;;;12.35;7.88;;;19.80;86.80;;;;;;6193945;23;20038;-78
2022/06/17 22:12:17;;;;;;;12.25;8.10;;;19.80;86.30;;;;;;6222656;23;20015;-79
2022/06/17 22:14:44;;;;;;;10.65;8.07;;;19.80;86.20;;;;;;6222742;23;20497;-78
2022/06/17 22:17:13;;;;;;;17.42;9.07;;;19.90;85.50;;;;;;6244748;23;20453;-78
2022/06/17 22:19:40;;;;;;;11.68;8.68;;;19.80;85.20;;;;;;6194478;23;20329;-79
2022/06/17 22:22:23;;;;;;;17.60;9.10;;;19.80;85.00;;;;;;6204713;23;20016;-78
2022/06/17 22:24:49;;;;;;;14.63;9.45;;;19.80;85.30;;;;;;6194058;23;20012;-77
2022/06/17 22:27:19;;;;;;;14.07;9.85;;;19.70;85.30;;;;;;6194567;23;20008;-77
2022/06/17 22:29:45;;;;;;;15.00;10.23;;;19.70;85.30;;;;;;6219023;23;20043;-77
2022/06/17 22:32:35;;;;;;;14.82;9.18;;;19.60;85.30;;;;;;6219235;23;20544;-78
2022/06/17 22:35:05;;;;;;;13.38;9.95;;;19.60;85.20;;;;;;6219328;23;20015;-77
2022/06/17 22:37:36;;;;;;;11.35;9.38;;;19.60;84.70;;;;;;6194179;23;20020;-78
2022/06/17 22:40:13;;;;;;;15.32;10.13;;;19.60;84.80;;;;;;6218776;23;20019;-78
2022/06/17 22:42:42;;;;;;;13.30;9.15;;;19.60;84.50;;;;;;6219320;23;20018;-78
2022/06/17 22:45:10;;;;;;;14.38;9.15;;;19.50;84.30;;;;;;6220298;23;20019;-77
2022/06/17 22:47:37;;;;;;;13.93;10.27;;;19.50;84.00;;;;;;6221306;23;20099;-80
2022/06/17 22:50:14;;;;;;;24.05;9.57;;;19.50;84.30;;;;;;6195567;23;20152;-78
2022/06/17 22:52:44;;;;;;;13.18;8.75;;;19.50;84.20;;;;;;6195827;23;20008;-78
2022/06/17 22:55:17;;;;;;;16.48;9.52;;;19.40;84.10;;;;;;6195880;23;20015;-78
2022/06/17 22:57:43;;;;;;;15.20;9.32;;;19.40;84.20;;;;;;6220950;23;20004;-77
2022/06/17 23:00:12;;;;;;;;;;;19.30;84.10;;;;;;6196035;23;20064;-80
2022/06/17 23:02:38;;;;;;;17.80;9.52;;;19.30;84.70;;;;;;6195352;23;19911;-79
2022/06/17 23:05:04;;;;;;;14.35;8.88;;;19.30;83.90;;;;;;6195727;23;20008;-77
2022/06/17 23:07:33;;;;;;;18.15;9.50;;;19.30;84.20;;;;;;6221006;23;20012;-79
2022/06/17 23:09:59;;;;;;;12.70;8.43;;;19.30;83.80;;;;;;6220954;23;20012;-79
2022/06/17 23:12:24;;;;;;;15.88;9.27;;;19.30;83.70;;;;;;6195846;23;20054;-77
2022/06/17 23:14:53;;;;;;;14.55;9.63;;;19.30;83.70;;;;;;6195665;23;20082;-78
2022/06/17 23:17:26;;;;;;;19.27;10.18;;;19.20;83.80;;;;;;6221026;23;20046;-78
2022/06/17 23:20:01;;;;;;;13.52;9.52;;;19.20;83.90;;;;;;6220683;23;20431;-76
2022/06/17 23:22:34;;;;;;;14.30;10.32;;;19.10;84.30;;;;;;6215626;23;20017;-77
2022/06/17 23:25:08;;;;;;;13.60;9.43;;;19.10;85.60;;;;;;6216015;23;20016;-77
2022/06/17 23:27:33;;;;;;;13.90;8.93;;;19.00;84.60;;;;;;6215882;23;20005;-77
2022/06/17 23:29:59;;;;;;;12.88;9.23;;;19.00;84.70;;;;;;6190676;23;20095;-79
2022/06/17 23:32:25;;;;;;;19.42;9.55;;;18.90;85.10;;;;;;6215229;23;20013;-76
2022/06/17 23:34:56;;;;;;;16.83;9.32;;;18.90;85.80;;;;;;6190475;23;20446;-78
2022/06/17 23:37:22;;;;;;;17.75;9.50;;;18.80;85.90;;;;;;6216371;23;20031;-76
2022/06/17 23:39:47;;;;;;;;;;;18.80;85.30;;;;;;6196020;23;20012;-77
2022/06/17 23:42:15;;;;;;;14.05;9.80;;;18.70;86.20;;;;;;6194692;23;19908;-79
2022/06/17 23:44:41;;;;;;;12.45;8.95;;;18.70;85.30;;;;;;6215281;23;20043;-78
2022/06/17 23:47:15;;;;;;;12.35;8.52;;;18.70;86.20;;;;;;6190196;23;20009;-76
2022/06/17 23:49:43;;;;;;;13.20;9.80;;;18.70;86.10;;;;;;6190574;23;20020;-77
2022/06/17 23:52:29;;;;;;;16.55;9.60;;;18.60;85.90;;;;;;6215048;23;20142;-79
2022/06/17 23:54:55;;;;;;;17.52;10.52;;;18.60;87.30;;;;;;6215575;23;20008;-78
2022/06/17 23:57:24;;;;;;;13.48;10.60;;;18.50;86.30;;;;;;6215287;23;20074;-78
2022/06/17 23:59:49;;;;;;;17.38;9.88;;;18.50;86.00;;;;;;6214764;23;20071;-78
